sensor_id;sensor_type;location;lat;lon;timestamp;P1;durP1;ratioP1;P2;durP2;ratioP2
8632;SDS011;4354;49.832;10.746;2023-02-11T00:01:11;83.77;;;44.50;;
8632;SDS011;4354;49.832;10.746;2023-02-11T00:03:44;81.83;;;45.27;;
8632;SDS011;4354;49.832;10.746;2023-02-11T00:06:10;84.53;;;44.80;;
8632;SDS011;4354;49.832;10.746;2023-02-11T00:08:37;82.83;;;44.83;;
8632;SDS011;4354;49.832;10.746;2023-02-11T00:11:04;86.63;;;46.33;;
8632;SDS011;4354;49.832;10.746;2023-02-11T00:13:31;92.13;;;45.60;;
8632;SDS011;4354;49.832;10.746;2023-02-11T00:15:58;78.03;;;43.80;;
8632;SDS011;4354;49.832;10.746;2023-02-11T00:18:25;83.93;;;46.83;;
8632;SDS011;4354;49.832;10.746;2023-02-11T00:20:52;86.93;;;46.20;;
8632;SDS011;4354;49.832;10.746;2023-02-11T00:23:19;80.53;;;44.67;;
8632;SDS011;4354;49.832;10.746;2023-02-11T00:25:46;92.17;;;48.20;;
8632;SDS011;4354;49.832;10.746;2023-02-11T00:28:12;82.63;;;46.23;;
8632;SDS011;4354;49.832;10.746;2023-02-11T00:30:40;82.47;;;47.07;;
8632;SDS011;4354;49.832;10.746;2023-02-11T00:33:07;81.33;;;45.10;;
8632;SDS011;4354;49.832;10.746;2023-02-11T00:35:35;86.13;;;46.33;;
8632;SDS011;4354;49.832;10.746;2023-02-11T00:38:03;83.87;;;44.60;;
8632;SDS011;4354;49.832;10.746;2023-02-11T00:40:30;83.50;;;45.70;;
8632;SDS011;4354;49.832;10.746;2023-02-11T00:42:57;97.33;;;49.57;;
8632;SDS011;4354;49.832;10.746;2023-02-11T00:45:24;86.87;;;46.00;;
8632;SDS011;4354;49.832;10.746;2023-02-11T00:47:50;84.83;;;46.77;;
8632;SDS011;4354;49.832;10.746;2023-02-11T00:50:17;90.13;;;48.93;;
8632;SDS011;4354;49.832;10.746;2023-02-11T00:52:44;102.90;;;52.27;;
8632;SDS011;4354;49.832;10.746;2023-02-11T00:55:11;94.10;;;52.03;;
8632;SDS011;4354;49.832;10.746;2023-02-11T00:57:37;95.30;;;52.07;;
8632;SDS011;4354;49.832;10.746;2023-02-11T01:00:05;98.03;;;53.23;;
8632;SDS011;4354;49.832;10.746;2023-02-11T01:02:32;96.53;;;50.77;;
8632;SDS011;4354;49.832;10.746;2023-02-11T01:04:59;100.50;;;50.17;;
8632;SDS011;4354;49.832;10.746;2023-02-11T01:07:27;90.70;;;50.93;;
8632;SDS011;4354;49.832;10.746;2023-02-11T01:09:54;88.70;;;48.13;;
8632;SDS011;4354;49.832;10.746;2023-02-11T01:12:21;92.77;;;50.10;;
8632;SDS011;4354;49.832;10.746;2023-02-11T01:14:48;84.73;;;49.63;;
8632;SDS011;4354;49.832;10.746;2023-02-11T01:17:15;87.60;;;48.37;;
8632;SDS011;4354;49.832;10.746;2023-02-11T01:19:42;86.77;;;48.57;;
8632;SDS011;4354;49.832;10.746;2023-02-11T01:22:08;86.53;;;49.07;;
8632;SDS011;4354;49.832;10.746;2023-02-11T01:24:35;86.63;;;48.10;;
8632;SDS011;4354;49.832;10.746;2023-02-11T01:27:02;76.13;;;44.13;;
8632;SDS011;4354;49.832;10.746;2023-02-11T01:29:29;78.80;;;43.00;;
8632;SDS011;4354;49.832;10.746;2023-02-11T01:31:55;76.83;;;44.10;;
8632;SDS011;4354;49.832;10.746;2023-02-11T01:34:22;81.57;;;43.70;;
8632;SDS011;4354;49.832;10.746;2023-02-11T01:36:49;78.30;;;44.33;;
8632;SDS011;4354;49.832;10.746;2023-02-11T01:39:15;77.17;;;43.70;;
8632;SDS011;4354;49.832;10.746;2023-02-11T01:41:42;79.07;;;43.73;;
8632;SDS011;4354;49.832;10.746;2023-02-11T01:46:54;78.73;;;43.77;;
8632;SDS011;4354;49.832;10.746;2023-02-11T01:49:22;83.13;;;44.53;;
8632;SDS011;4354;49.832;10.746;2023-02-11T01:52:06;81.43;;;45.90;;
8632;SDS011;4354;49.832;10.746;2023-02-11T01:54:42;78.73;;;44.77;;
8632;SDS011;4354;49.832;10.746;2023-02-11T01:57:30;79.07;;;45.50;;
8632;SDS011;4354;49.832;10.746;2023-02-11T02:02:41;74.37;;;44.17;;
8632;SDS011;4354;49.832;10.746;2023-02-11T02:08:08;77.37;;;43.97;;
8632;SDS011;4354;49.832;10.746;2023-02-11T02:13:34;83.47;;;46.50;;
8632;SDS011;4354;49.832;10.746;2023-02-11T02:16:05;76.93;;;46.00;;
8632;SDS011;4354;49.832;10.746;2023-02-11T02:33:12;76.67;;;44.87;;
8632;SDS011;4354;49.832;10.746;2023-02-11T02:36:21;78.93;;;49.07;;
8632;SDS011;4354;49.832;10.746;2023-02-11T02:38:51;76.10;;;45.23;;
8632;SDS011;4354;49.832;10.746;2023-02-11T02:41:28;74.87;;;44.63;;
8632;SDS011;4354;49.832;10.746;2023-02-11T02:43:57;80.90;;;47.23;;
8632;SDS011;4354;49.832;10.746;2023-02-11T02:46:26;87.33;;;48.07;;
8632;SDS011;4354;49.832;10.746;2023-02-11T02:48:55;79.80;;;47.63;;
8632;SDS011;4354;49.832;10.746;2023-02-11T02:56:55;77.73;;;47.03;;
8632;SDS011;4354;49.832;10.746;2023-02-11T03:08:05;75.07;;;46.03;;
8632;SDS011;4354;49.832;10.746;2023-02-11T03:10:37;79.20;;;45.73;;
8632;SDS011;4354;49.832;10.746;2023-02-11T03:13:08;80.37;;;48.47;;
8632;SDS011;4354;49.832;10.746;2023-02-11T03:15:37;74.40;;;44.70;;
8632;SDS011;4354;49.832;10.746;2023-02-11T03:18:07;84.30;;;47.50;;
8632;SDS011;4354;49.832;10.746;2023-02-11T03:20:37;73.57;;;44.43;;
8632;SDS011;4354;49.832;10.746;2023-02-11T03:23:14;76.33;;;45.40;;
8632;SDS011;4354;49.832;10.746;2023-02-11T03:29:03;79.03;;;44.67;;
8632;SDS011;4354;49.832;10.746;2023-02-11T03:34:14;67.40;;;42.00;;
8632;SDS011;4354;49.832;10.746;2023-02-11T03:36:52;64.40;;;41.87;;
8632;SDS011;4354;49.832;10.746;2023-02-11T03:39:32;71.60;;;43.60;;
8632;SDS011;4354;49.832;10.746;2023-02-11T03:42:03;73.27;;;42.57;;
8632;SDS011;4354;49.832;10.746;2023-02-11T03:44:33;72.83;;;42.63;;
8632;SDS011;4354;49.832;10.746;2023-02-11T03:47:06;73.63;;;43.83;;
8632;SDS011;4354;49.832;10.746;2023-02-11T03:49:34;73.47;;;41.83;;
8632;SDS011;4354;49.832;10.746;2023-02-11T03:52:04;69.13;;;42.47;;
8632;SDS011;4354;49.832;10.746;2023-02-11T03:54:33;72.10;;;43.87;;
8632;SDS011;4354;49.832;10.746;2023-02-11T03:57:01;69.63;;;42.37;;
8632;SDS011;4354;49.832;10.746;2023-02-11T03:59:28;73.60;;;43.30;;
8632;SDS011;4354;49.832;10.746;2023-02-11T04:01:55;65.40;;;41.07;;
8632;SDS011;4354;49.832;10.746;2023-02-11T04:04:24;70.77;;;43.63;;
8632;SDS011;4354;49.832;10.746;2023-02-11T04:06:51;63.33;;;40.27;;
8632;SDS011;4354;49.832;10.746;2023-02-11T04:09:18;69.27;;;41.50;;
8632;SDS011;4354;49.832;10.746;2023-02-11T04:11:45;70.70;;;42.37;;
8632;SDS011;4354;49.832;10.746;2023-02-11T04:14:11;66.23;;;41.43;;
8632;SDS011;4354;49.832;10.746;2023-02-11T04:16:38;68.83;;;41.47;;
8632;SDS011;4354;49.832;10.746;2023-02-11T04:19:05;73.73;;;43.37;;
8632;SDS011;4354;49.832;10.746;2023-02-11T04:21:32;72.70;;;41.90;;
8632;SDS011;4354;49.832;10.746;2023-02-11T04:23:58;68.83;;;41.27;;
8632;SDS011;4354;49.832;10.746;2023-02-11T04:26:25;68.10;;;43.03;;
8632;SDS011;4354;49.832;10.746;2023-02-11T04:28:52;67.23;;;40.23;;
8632;SDS011;4354;49.832;10.746;2023-02-11T04:31:19;71.03;;;42.30;;
8632;SDS011;4354;49.832;10.746;2023-02-11T04:33:46;73.87;;;42.03;;
8632;SDS011;4354;49.832;10.746;2023-02-11T04:36:12;60.90;;;38.63;;
8632;SDS011;4354;49.832;10.746;2023-02-11T04:38:39;64.27;;;38.90;;
8632;SDS011;4354;49.832;10.746;2023-02-11T04:41:06;64.37;;;37.87;;
8632;SDS011;4354;49.832;10.746;2023-02-11T04:43:33;58.20;;;37.23;;
8632;SDS011;4354;49.832;10.746;2023-02-11T04:45:59;56.37;;;35.57;;
8632;SDS011;4354;49.832;10.746;2023-02-11T04:48:27;52.80;;;33.60;;
8632;SDS011;4354;49.832;10.746;2023-02-11T04:50:54;58.90;;;35.83;;
8632;SDS011;4354;49.832;10.746;2023-02-11T04:53:20;60.40;;;37.20;;
8632;SDS011;4354;49.832;10.746;2023-02-11T04:55:48;56.43;;;34.90;;
8632;SDS011;4354;49.832;10.746;2023-02-11T04:58:16;57.30;;;36.80;;
8632;SDS011;4354;49.832;10.746;2023-02-11T05:00:44;59.73;;;35.83;;
8632;SDS011;4354;49.832;10.746;2023-02-11T05:03:11;60.03;;;36.23;;
8632;SDS011;4354;49.832;10.746;2023-02-11T05:05:38;55.17;;;34.27;;
8632;SDS011;4354;49.832;10.746;2023-02-11T05:08:07;55.53;;;34.37;;
8632;SDS011;4354;49.832;10.746;2023-02-11T05:10:35;57.63;;;35.93;;
8632;SDS011;4354;49.832;10.746;2023-02-11T05:13:02;58.47;;;35.33;;
8632;SDS011;4354;49.832;10.746;2023-02-11T05:15:29;59.90;;;36.97;;
8632;SDS011;4354;49.832;10.746;2023-02-11T05:17:56;59.77;;;34.17;;
8632;SDS011;4354;49.832;10.746;2023-02-11T05:20:23;57.60;;;34.17;;
8632;SDS011;4354;49.832;10.746;2023-02-11T05:22:50;51.83;;;31.30;;
8632;SDS011;4354;49.832;10.746;2023-02-11T05:25:17;59.43;;;35.53;;
8632;SDS011;4354;49.832;10.746;2023-02-11T05:27:45;53.63;;;33.33;;
8632;SDS011;4354;49.832;10.746;2023-02-11T05:30:12;56.97;;;36.30;;
8632;SDS011;4354;49.832;10.746;2023-02-11T05:32:39;55.43;;;34.97;;
8632;SDS011;4354;49.832;10.746;2023-02-11T05:35:06;65.10;;;36.03;;
8632;SDS011;4354;49.832;10.746;2023-02-11T05:37:34;57.43;;;35.03;;
8632;SDS011;4354;49.832;10.746;2023-02-11T05:40:00;65.53;;;38.07;;
8632;SDS011;4354;49.832;10.746;2023-02-11T05:42:27;69.47;;;37.93;;
8632;SDS011;4354;49.832;10.746;2023-02-11T05:44:54;61.37;;;36.20;;
8632;SDS011;4354;49.832;10.746;2023-02-11T05:47:21;66.07;;;36.47;;
8632;SDS011;4354;49.832;10.746;2023-02-11T05:49:47;60.20;;;35.03;;
8632;SDS011;4354;49.832;10.746;2023-02-11T05:52:14;60.73;;;34.90;;
8632;SDS011;4354;49.832;10.746;2023-02-11T05:54:41;57.57;;;33.13;;
8632;SDS011;4354;49.832;10.746;2023-02-11T05:57:08;57.27;;;34.70;;
8632;SDS011;4354;49.832;10.746;2023-02-11T05:59:34;67.13;;;37.97;;
8632;SDS011;4354;49.832;10.746;2023-02-11T06:02:01;67.57;;;39.93;;
8632;SDS011;4354;49.832;10.746;2023-02-11T06:04:28;62.00;;;36.73;;
8632;SDS011;4354;49.832;10.746;2023-02-11T06:06:55;67.50;;;37.33;;
8632;SDS011;4354;49.832;10.746;2023-02-11T06:09:22;73.80;;;40.13;;
8632;SDS011;4354;49.832;10.746;2023-02-11T06:11:49;66.30;;;38.37;;
8632;SDS011;4354;49.832;10.746;2023-02-11T06:14:15;72.57;;;39.97;;
8632;SDS011;4354;49.832;10.746;2023-02-11T06:16:42;66.70;;;38.57;;
8632;SDS011;4354;49.832;10.746;2023-02-11T06:19:10;72.80;;;40.73;;
8632;SDS011;4354;49.832;10.746;2023-02-11T06:21:37;69.47;;;39.37;;
8632;SDS011;4354;49.832;10.746;2023-02-11T06:24:09;80.43;;;42.50;;
8632;SDS011;4354;49.832;10.746;2023-02-11T06:26:37;75.23;;;40.03;;
8632;SDS011;4354;49.832;10.746;2023-02-11T06:29:03;77.30;;;41.73;;
8632;SDS011;4354;49.832;10.746;2023-02-11T06:31:30;77.10;;;42.07;;
8632;SDS011;4354;49.832;10.746;2023-02-11T06:33:57;77.57;;;40.27;;
8632;SDS011;4354;49.832;10.746;2023-02-11T06:36:24;68.17;;;38.13;;
8632;SDS011;4354;49.832;10.746;2023-02-11T06:38:51;74.57;;;36.47;;
8632;SDS011;4354;49.832;10.746;2023-02-11T06:41:18;66.73;;;35.17;;
8632;SDS011;4354;49.832;10.746;2023-02-11T06:43:46;55.73;;;33.83;;
8632;SDS011;4354;49.832;10.746;2023-02-11T06:46:13;68.80;;;37.00;;
8632;SDS011;4354;49.832;10.746;2023-02-11T06:48:40;73.90;;;39.23;;
8632;SDS011;4354;49.832;10.746;2023-02-11T06:51:10;69.67;;;39.13;;
8632;SDS011;4354;49.832;10.746;2023-02-11T06:53:40;69.60;;;38.77;;
8632;SDS011;4354;49.832;10.746;2023-02-11T06:56:10;67.80;;;36.83;;
8632;SDS011;4354;49.832;10.746;2023-02-11T06:58:39;64.30;;;35.53;;
8632;SDS011;4354;49.832;10.746;2023-02-11T07:01:07;62.00;;;35.93;;
8632;SDS011;4354;49.832;10.746;2023-02-11T07:03:35;70.43;;;38.97;;
8632;SDS011;4354;49.832;10.746;2023-02-11T07:06:04;66.80;;;36.10;;
8632;SDS011;4354;49.832;10.746;2023-02-11T07:08:33;67.73;;;36.43;;
8632;SDS011;4354;49.832;10.746;2023-02-11T07:11:07;62.83;;;35.17;;
8632;SDS011;4354;49.832;10.746;2023-02-11T07:13:41;62.73;;;37.37;;
8632;SDS011;4354;49.832;10.746;2023-02-11T07:16:09;63.67;;;35.97;;
8632;SDS011;4354;49.832;10.746;2023-02-11T07:18:39;64.00;;;41.80;;
8632;SDS011;4354;49.832;10.746;2023-02-11T07:21:06;65.57;;;39.93;;
8632;SDS011;4354;49.832;10.746;2023-02-11T07:23:36;62.40;;;36.57;;
8632;SDS011;4354;49.832;10.746;2023-02-11T07:26:03;57.07;;;35.03;;
8632;SDS011;4354;49.832;10.746;2023-02-11T07:28:32;58.30;;;36.10;;
8632;SDS011;4354;49.832;10.746;2023-02-11T07:31:10;63.77;;;36.97;;
8632;SDS011;4354;49.832;10.746;2023-02-11T07:33:39;54.50;;;33.43;;
8632;SDS011;4354;49.832;10.746;2023-02-11T07:36:07;56.60;;;32.10;;
8632;SDS011;4354;49.832;10.746;2023-02-11T07:38:35;52.70;;;31.27;;
8632;SDS011;4354;49.832;10.746;2023-02-11T07:41:03;50.70;;;31.17;;
8632;SDS011;4354;49.832;10.746;2023-02-11T07:43:35;50.40;;;32.10;;
8632;SDS011;4354;49.832;10.746;2023-02-11T07:46:03;45.03;;;30.63;;
8632;SDS011;4354;49.832;10.746;2023-02-11T07:48:34;45.47;;;29.60;;
8632;SDS011;4354;49.832;10.746;2023-02-11T07:51:07;56.37;;;32.67;;
8632;SDS011;4354;49.832;10.746;2023-02-11T07:53:54;46.43;;;30.47;;
8632;SDS011;4354;49.832;10.746;2023-02-11T07:56:22;47.13;;;29.47;;
8632;SDS011;4354;49.832;10.746;2023-02-11T07:58:49;45.90;;;30.00;;
8632;SDS011;4354;49.832;10.746;2023-02-11T08:01:18;48.93;;;31.53;;
8632;SDS011;4354;49.832;10.746;2023-02-11T08:03:48;47.23;;;30.23;;
8632;SDS011;4354;49.832;10.746;2023-02-11T08:06:15;46.50;;;30.60;;
8632;SDS011;4354;49.832;10.746;2023-02-11T08:08:43;46.87;;;30.57;;
8632;SDS011;4354;49.832;10.746;2023-02-11T08:11:18;48.07;;;32.47;;
8632;SDS011;4354;49.832;10.746;2023-02-11T08:13:53;52.13;;;35.13;;
8632;SDS011;4354;49.832;10.746;2023-02-11T08:16:28;52.53;;;33.77;;
8632;SDS011;4354;49.832;10.746;2023-02-11T08:18:59;46.20;;;31.97;;
8632;SDS011;4354;49.832;10.746;2023-02-11T08:21:27;69.73;;;45.40;;
8632;SDS011;4354;49.832;10.746;2023-02-11T08:23:54;51.20;;;34.37;;
8632;SDS011;4354;49.832;10.746;2023-02-11T08:26:23;54.27;;;34.43;;
8632;SDS011;4354;49.832;10.746;2023-02-11T08:28:52;47.83;;;32.20;;
8632;SDS011;4354;49.832;10.746;2023-02-11T08:31:21;49.03;;;32.27;;
8632;SDS011;4354;49.832;10.746;2023-02-11T08:33:50;57.13;;;36.17;;
8632;SDS011;4354;49.832;10.746;2023-02-11T08:36:19;54.10;;;37.10;;
8632;SDS011;4354;49.832;10.746;2023-02-11T08:38:48;69.93;;;45.63;;
8632;SDS011;4354;49.832;10.746;2023-02-11T08:41:15;69.47;;;47.10;;
8632;SDS011;4354;49.832;10.746;2023-02-11T08:43:43;67.17;;;43.63;;
8632;SDS011;4354;49.832;10.746;2023-02-11T08:46:12;58.83;;;40.73;;
8632;SDS011;4354;49.832;10.746;2023-02-11T08:48:42;58.20;;;38.53;;
8632;SDS011;4354;49.832;10.746;2023-02-11T08:51:11;50.17;;;35.13;;
8632;SDS011;4354;49.832;10.746;2023-02-11T08:53:43;45.27;;;30.47;;
8632;SDS011;4354;49.832;10.746;2023-02-11T08:56:10;41.23;;;27.57;;
8632;SDS011;4354;49.832;10.746;2023-02-11T08:58:39;37.73;;;25.67;;
8632;SDS011;4354;49.832;10.746;2023-02-11T09:01:09;36.63;;;25.13;;
8632;SDS011;4354;49.832;10.746;2023-02-11T09:03:48;35.53;;;25.10;;
8632;SDS011;4354;49.832;10.746;2023-02-11T09:06:14;42.27;;;27.40;;
8632;SDS011;4354;49.832;10.746;2023-02-11T09:08:44;39.87;;;26.47;;
8632;SDS011;4354;49.832;10.746;2023-02-11T09:11:18;55.73;;;33.00;;
8632;SDS011;4354;49.832;10.746;2023-02-11T09:13:46;49.10;;;30.87;;
8632;SDS011;4354;49.832;10.746;2023-02-11T09:16:17;45.27;;;28.93;;
8632;SDS011;4354;49.832;10.746;2023-02-11T09:18:46;42.87;;;29.00;;
8632;SDS011;4354;49.832;10.746;2023-02-11T09:21:13;44.53;;;28.07;;
8632;SDS011;4354;49.832;10.746;2023-02-11T09:23:42;45.17;;;29.47;;
8632;SDS011;4354;49.832;10.746;2023-02-11T09:26:11;42.37;;;29.77;;
8632;SDS011;4354;49.832;10.746;2023-02-11T09:28:41;37.10;;;26.47;;
8632;SDS011;4354;49.832;10.746;2023-02-11T09:31:10;35.13;;;24.53;;
8632;SDS011;4354;49.832;10.746;2023-02-11T09:33:40;34.07;;;22.33;;
8632;SDS011;4354;49.832;10.746;2023-02-11T09:36:14;33.40;;;23.07;;
8632;SDS011;4354;49.832;10.746;2023-02-11T09:38:42;30.17;;;21.53;;
8632;SDS011;4354;49.832;10.746;2023-02-11T09:43:53;28.57;;;19.87;;
8632;SDS011;4354;49.832;10.746;2023-02-11T09:46:23;32.57;;;19.80;;
8632;SDS011;4354;49.832;10.746;2023-02-11T09:48:53;31.37;;;19.53;;
8632;SDS011;4354;49.832;10.746;2023-02-11T09:54:18;26.83;;;18.67;;
8632;SDS011;4354;49.832;10.746;2023-02-11T09:56:59;29.00;;;20.00;;
8632;SDS011;4354;49.832;10.746;2023-02-11T09:59:26;30.57;;;19.90;;
8632;SDS011;4354;49.832;10.746;2023-02-11T10:01:54;27.80;;;20.03;;
8632;SDS011;4354;49.832;10.746;2023-02-11T10:04:31;26.77;;;20.40;;
8632;SDS011;4354;49.832;10.746;2023-02-11T10:07:11;29.50;;;19.63;;
8632;SDS011;4354;49.832;10.746;2023-02-11T10:09:51;28.40;;;19.90;;
8632;SDS011;4354;49.832;10.746;2023-02-11T10:12:59;28.47;;;19.90;;
8632;SDS011;4354;49.832;10.746;2023-02-11T10:15:48;32.23;;;20.83;;
8632;SDS011;4354;49.832;10.746;2023-02-11T10:23:46;31.07;;;21.57;;
8632;SDS011;4354;49.832;10.746;2023-02-11T10:26:17;27.17;;;20.30;;
8632;SDS011;4354;49.832;10.746;2023-02-11T10:28:46;30.33;;;19.67;;
8632;SDS011;4354;49.832;10.746;2023-02-11T10:31:24;31.50;;;21.60;;
8632;SDS011;4354;49.832;10.746;2023-02-11T10:34:05;33.60;;;21.73;;
8632;SDS011;4354;49.832;10.746;2023-02-11T10:36:35;29.67;;;21.10;;
8632;SDS011;4354;49.832;10.746;2023-02-11T10:39:09;28.40;;;20.37;;
8632;SDS011;4354;49.832;10.746;2023-02-11T10:41:40;29.13;;;20.33;;
8632;SDS011;4354;49.832;10.746;2023-02-11T10:44:21;28.27;;;19.60;;
8632;SDS011;4354;49.832;10.746;2023-02-11T10:46:54;29.60;;;20.23;;
8632;SDS011;4354;49.832;10.746;2023-02-11T10:49:36;27.53;;;20.63;;
8632;SDS011;4354;49.832;10.746;2023-02-11T10:57:42;26.93;;;19.97;;
8632;SDS011;4354;49.832;10.746;2023-02-11T11:03:17;29.03;;;20.00;;
8632;SDS011;4354;49.832;10.746;2023-02-11T11:08:36;28.13;;;20.27;;
8632;SDS011;4354;49.832;10.746;2023-02-11T11:11:07;31.40;;;20.67;;
8632;SDS011;4354;49.832;10.746;2023-02-11T11:13:36;29.30;;;22.10;;
8632;SDS011;4354;49.832;10.746;2023-02-11T11:18:42;31.57;;;22.73;;
8632;SDS011;4354;49.832;10.746;2023-02-11T11:21:15;32.43;;;21.83;;
8632;SDS011;4354;49.832;10.746;2023-02-11T11:23:49;33.20;;;22.77;;
8632;SDS011;4354;49.832;10.746;2023-02-11T11:26:24;29.63;;;22.23;;
8632;SDS011;4354;49.832;10.746;2023-02-11T11:29:08;29.67;;;21.80;;
8632;SDS011;4354;49.832;10.746;2023-02-11T11:31:45;32.77;;;22.57;;
8632;SDS011;4354;49.832;10.746;2023-02-11T11:42:34;34.43;;;22.33;;
8632;SDS011;4354;49.832;10.746;2023-02-11T11:45:22;31.53;;;21.77;;
8632;SDS011;4354;49.832;10.746;2023-02-11T11:47:53;33.37;;;22.37;;
8632;SDS011;4354;49.832;10.746;2023-02-11T11:50:43;31.07;;;22.33;;
8632;SDS011;4354;49.832;10.746;2023-02-11T11:56:10;33.23;;;22.00;;
8632;SDS011;4354;49.832;10.746;2023-02-11T11:58:49;32.43;;;21.90;;
8632;SDS011;4354;49.832;10.746;2023-02-11T12:06:56;27.97;;;20.80;;
8632;SDS011;4354;49.832;10.746;2023-02-11T12:18:12;29.50;;;21.30;;
8632;SDS011;4354;49.832;10.746;2023-02-11T12:29:14;30.60;;;21.27;;
8632;SDS011;4354;49.832;10.746;2023-02-11T12:39:58;32.30;;;21.90;;
8632;SDS011;4354;49.832;10.746;2023-02-11T12:42:53;29.23;;;21.03;;
8632;SDS011;4354;49.832;10.746;2023-02-11T12:51:48;30.20;;;20.83;;
8632;SDS011;4354;49.832;10.746;2023-02-11T12:54:34;32.43;;;20.97;;
8632;SDS011;4354;49.832;10.746;2023-02-11T12:57:25;32.97;;;21.23;;
8632;SDS011;4354;49.832;10.746;2023-02-11T13:08:21;27.80;;;20.53;;
8632;SDS011;4354;49.832;10.746;2023-02-11T13:11:38;30.37;;;21.97;;
8632;SDS011;4354;49.832;10.746;2023-02-11T13:32:12;29.67;;;21.53;;
8632;SDS011;4354;49.832;10.746;2023-02-11T13:40:04;30.93;;;20.30;;
8632;SDS011;4354;49.832;10.746;2023-02-11T13:45:17;28.90;;;20.60;;
8632;SDS011;4354;49.832;10.746;2023-02-11T13:48:00;31.97;;;20.90;;
8632;SDS011;4354;49.832;10.746;2023-02-11T13:50:31;32.53;;;21.33;;
8632;SDS011;4354;49.832;10.746;2023-02-11T13:53:05;29.50;;;20.87;;
8632;SDS011;4354;49.832;10.746;2023-02-11T13:55:34;29.73;;;21.50;;
8632;SDS011;4354;49.832;10.746;2023-02-11T14:04:15;32.83;;;21.23;;
8632;SDS011;4354;49.832;10.746;2023-02-11T14:06:27;36.50;;;25.43;;
8632;SDS011;4354;49.832;10.746;2023-02-11T14:14:17;28.83;;;21.13;;
8632;SDS011;4354;49.832;10.746;2023-02-11T14:17:34;30.90;;;21.73;;
8632;SDS011;4354;49.832;10.746;2023-02-11T14:19:37;28.87;;;20.73;;
8632;SDS011;4354;49.832;10.746;2023-02-11T14:22:19;26.70;;;20.27;;
8632;SDS011;4354;49.832;10.746;2023-02-11T14:35:35;28.83;;;21.30;;
8632;SDS011;4354;49.832;10.746;2023-02-11T14:43:54;30.00;;;21.17;;
8632;SDS011;4354;49.832;10.746;2023-02-11T14:46:24;31.13;;;21.00;;
8632;SDS011;4354;49.832;10.746;2023-02-11T14:49:01;31.07;;;20.83;;
8632;SDS011;4354;49.832;10.746;2023-02-11T14:51:31;28.90;;;21.80;;
8632;SDS011;4354;49.832;10.746;2023-02-11T14:54:11;26.97;;;19.47;;
8632;SDS011;4354;49.832;10.746;2023-02-11T14:56:42;27.10;;;19.83;;
8632;SDS011;4354;49.832;10.746;2023-02-11T14:59:19;30.60;;;20.70;;
8632;SDS011;4354;49.832;10.746;2023-02-11T15:01:50;28.57;;;21.10;;
8632;SDS011;4354;49.832;10.746;2023-02-11T15:04:24;32.07;;;22.53;;
8632;SDS011;4354;49.832;10.746;2023-02-11T15:06:53;28.83;;;21.03;;
8632;SDS011;4354;49.832;10.746;2023-02-11T15:09:23;30.93;;;21.37;;
8632;SDS011;4354;49.832;10.746;2023-02-11T15:11:54;28.43;;;21.10;;
8632;SDS011;4354;49.832;10.746;2023-02-11T15:14:23;29.87;;;20.70;;
8632;SDS011;4354;49.832;10.746;2023-02-11T15:16:54;29.37;;;20.80;;
8632;SDS011;4354;49.832;10.746;2023-02-11T15:19:34;28.07;;;20.53;;
8632;SDS011;4354;49.832;10.746;2023-02-11T15:22:14;26.70;;;19.77;;
8632;SDS011;4354;49.832;10.746;2023-02-11T15:24:45;31.03;;;21.10;;
8632;SDS011;4354;49.832;10.746;2023-02-11T15:27:39;30.30;;;19.47;;
8632;SDS011;4354;49.832;10.746;2023-02-11T15:32:55;27.73;;;21.30;;
8632;SDS011;4354;49.832;10.746;2023-02-11T15:35:30;25.07;;;19.13;;
8632;SDS011;4354;49.832;10.746;2023-02-11T15:38:00;29.67;;;19.57;;
8632;SDS011;4354;49.832;10.746;2023-02-11T15:40:28;26.10;;;19.13;;
8632;SDS011;4354;49.832;10.746;2023-02-11T15:43:00;25.33;;;18.77;;
8632;SDS011;4354;49.832;10.746;2023-02-11T15:48:00;26.13;;;19.73;;
8632;SDS011;4354;49.832;10.746;2023-02-11T15:50:34;29.57;;;19.83;;
8632;SDS011;4354;49.832;10.746;2023-02-11T15:53:05;28.40;;;20.77;;
8632;SDS011;4354;49.832;10.746;2023-02-11T15:56:41;24.17;;;18.73;;
8632;SDS011;4354;49.832;10.746;2023-02-11T15:58:42;29.90;;;19.80;;
8632;SDS011;4354;49.832;10.746;2023-02-11T16:01:12;26.23;;;19.13;;
8632;SDS011;4354;49.832;10.746;2023-02-11T16:03:40;25.07;;;18.27;;
8632;SDS011;4354;49.832;10.746;2023-02-11T16:06:21;28.83;;;19.87;;
8632;SDS011;4354;49.832;10.746;2023-02-11T16:08:56;26.57;;;19.10;;
8632;SDS011;4354;49.832;10.746;2023-02-11T16:14:21;30.07;;;20.23;;
8632;SDS011;4354;49.832;10.746;2023-02-11T16:17:06;32.97;;;21.67;;
8632;SDS011;4354;49.832;10.746;2023-02-11T16:19:44;30.23;;;21.60;;
8632;SDS011;4354;49.832;10.746;2023-02-11T16:24:56;34.00;;;22.93;;
8632;SDS011;4354;49.832;10.746;2023-02-11T16:27:26;29.77;;;22.27;;
8632;SDS011;4354;49.832;10.746;2023-02-11T16:30:05;30.60;;;22.03;;
8632;SDS011;4354;49.832;10.746;2023-02-11T16:32:46;32.33;;;22.63;;
8632;SDS011;4354;49.832;10.746;2023-02-11T16:35:12;29.13;;;21.80;;
8632;SDS011;4354;49.832;10.746;2023-02-11T16:37:39;35.27;;;21.23;;
8632;SDS011;4354;49.832;10.746;2023-02-11T16:40:06;32.13;;;21.37;;
8632;SDS011;4354;49.832;10.746;2023-02-11T16:42:34;32.00;;;21.67;;
8632;SDS011;4354;49.832;10.746;2023-02-11T16:45:01;32.50;;;21.90;;
8632;SDS011;4354;49.832;10.746;2023-02-11T16:47:28;31.57;;;21.90;;
8632;SDS011;4354;49.832;10.746;2023-02-11T16:49:56;37.80;;;23.30;;
8632;SDS011;4354;49.832;10.746;2023-02-11T16:52:24;30.30;;;22.07;;
8632;SDS011;4354;49.832;10.746;2023-02-11T16:54:51;28.80;;;21.43;;
8632;SDS011;4354;49.832;10.746;2023-02-11T16:57:23;30.67;;;21.53;;
8632;SDS011;4354;49.832;10.746;2023-02-11T16:59:53;33.80;;;22.83;;
8632;SDS011;4354;49.832;10.746;2023-02-11T17:04:52;30.73;;;21.43;;
8632;SDS011;4354;49.832;10.746;2023-02-11T17:07:20;33.07;;;22.40;;
8632;SDS011;4354;49.832;10.746;2023-02-11T17:09:47;33.87;;;22.87;;
8632;SDS011;4354;49.832;10.746;2023-02-11T17:12:14;32.27;;;22.83;;
8632;SDS011;4354;49.832;10.746;2023-02-11T17:14:41;32.10;;;21.93;;
8632;SDS011;4354;49.832;10.746;2023-02-11T17:17:09;34.57;;;22.53;;
8632;SDS011;4354;49.832;10.746;2023-02-11T17:19:37;34.60;;;23.27;;
8632;SDS011;4354;49.832;10.746;2023-02-11T17:22:04;30.47;;;21.73;;
8632;SDS011;4354;49.832;10.746;2023-02-11T17:24:31;35.13;;;22.70;;
8632;SDS011;4354;49.832;10.746;2023-02-11T17:26:58;31.00;;;23.43;;
8632;SDS011;4354;49.832;10.746;2023-02-11T17:29:25;33.03;;;23.93;;
8632;SDS011;4354;49.832;10.746;2023-02-11T17:31:52;33.93;;;23.23;;
8632;SDS011;4354;49.832;10.746;2023-02-11T17:34:19;36.77;;;22.70;;
8632;SDS011;4354;49.832;10.746;2023-02-11T17:36:47;34.10;;;22.30;;
8632;SDS011;4354;49.832;10.746;2023-02-11T17:39:14;28.90;;;22.03;;
8632;SDS011;4354;49.832;10.746;2023-02-11T17:41:41;30.43;;;21.70;;
8632;SDS011;4354;49.832;10.746;2023-02-11T17:44:09;32.00;;;23.37;;
8632;SDS011;4354;49.832;10.746;2023-02-11T17:46:37;35.73;;;24.10;;
8632;SDS011;4354;49.832;10.746;2023-02-11T17:49:04;33.07;;;22.80;;
8632;SDS011;4354;49.832;10.746;2023-02-11T17:51:32;33.27;;;22.07;;
8632;SDS011;4354;49.832;10.746;2023-02-11T17:54:09;37.70;;;24.00;;
8632;SDS011;4354;49.832;10.746;2023-02-11T17:56:38;34.37;;;22.67;;
8632;SDS011;4354;49.832;10.746;2023-02-11T17:59:05;33.30;;;23.03;;
8632;SDS011;4354;49.832;10.746;2023-02-11T18:01:34;34.38;;;25.08;;
8632;SDS011;4354;49.832;10.746;2023-02-11T18:04:02;33.27;;;23.53;;
8632;SDS011;4354;49.832;10.746;2023-02-11T18:06:30;36.00;;;22.77;;
8632;SDS011;4354;49.832;10.746;2023-02-11T18:08:59;38.80;;;23.13;;